Data for 02/27/2006

Time Sea-Level Adjusted Pressure Absolute Pressure Temperature Relative Humidity Dew Point   
(mb) (inHg) (mb) (inHg) (C) (F) (%) (C) (F)
00:05 1009 29.8 838 24.75 6.7 44.1 34 -8.2 17.2
00:10 1009 29.8 838 24.75 6.7 44 33 -8.5 16.6
00:15 1009 29.8 838 24.75 6.6 44 35 -7.8 18
00:20 1009 29.8 838 24.75 6.4 43.5 35 -8.1 17.5
00:25 1009 29.8 838 24.75 6.2 43.1 35 -8.1 17.5
00:30 1009 29.8 838 24.75 6.1 43 35 -8.1 17.5
00:35 1009 29.8 838 24.75 6.1 43 35 -8.3 17.1
00:40 1009 29.8 838 24.75 6.5 43.7 34 -8.2 17.3
00:45 1009 29.8 838 24.75 6.6 43.9 33 -8.5 16.7
00:50 1009 29.8 838 24.75 6.6 44 34 -8.3 17
00:55 1009 29.8 838 24.75 6.6 43.9 33 -8.5 16.7
01:00 1009 29.8 838 24.75 6.7 44 34 -8.3 17.1
01:05 1009 29.8 838 24.75 6.5 43.8 34 -8.4 16.9
01:10 1009 29.8 838 24.75 6.5 43.6 34 -8.2 17.3
01:15 1009 29.8 838 24.75 6.3 43.4 35 -8 17.6
01:20 1009 29.8 838 24.75 6.3 43.4 34 -8.3 17
01:25 1009 29.8 838 24.75 6.4 43.5 35 -8.1 17.5
01:30 1009 29.8 838 24.75 6.1 43 35 -8.1 17.5
01:35 1009 29.8 838 24.75 5.9 42.7 36 -8.2 17.3
01:40 1009 29.8 838 24.75 6 42.8 35 -8.4 16.9
01:45 1009 29.8 838 24.75 6.1 42.9 36 -8 17.7
01:50 1009 29.8 838 24.75 6 42.7 38 -7.4 18.8
01:55 1009 29.8 838 24.75 5.7 42.3 37 -7.7 18.2
02:00 1009 29.8 838 24.75 5.5 42 38 -7.6 18.4
02:05 1009 29.8 838 24.75 5.3 41.5 39 -7.5 18.6
02:10 1009 29.8 838 24.75 5.1 41.2 40 -7.3 18.9
02:15 1009 29.8 838 24.75 5.1 41.1 40 -7.6 18.4
02:20 1009 29.8 838 24.75 5 41 39 -7.7 18.2
02:25 1009 29.8 838 24.75 5.2 41.4 37 -8.5 16.7
02:30 1009 29.8 838 24.75 5.5 41.9 37 -8 17.6
02:35 1009 29.8 838 24.75 5.3 41.6 36 -8.6 16.6
02:40 1009 29.8 838 24.75 5.5 42 34 -9.1 15.7
02:45 1009 29.8 838 24.75 5.9 42.6 35 -8.5 16.7
02:50 1009 29.8 838 24.75 5.7 42.3 35 -8.5 16.7
02:55 1009 29.8 838 24.75 6 42.9 31 -9.7 14.5
03:00 1009 29.8 838 24.75 7.1 44.8 28 -10.4 13.3
03:05 1009 29.8 838 24.75 8 46.4 28 -9.3 15.3
03:10 1009 29.8 838 24.75 7.9 46.2 28 -9.6 14.7
03:15 1009 29.8 838 24.75 8.1 46.5 29 -9.1 15.6
03:20 1009 29.8 838 24.75 7.9 46.1 30 -8.5 16.7
03:25 1009 29.8 838 24.75 7.5 45.6 31 -8.6 16.5
03:30 1009 29.8 838 24.75 7.7 45.8 33 -7.6 18.4
03:35 1009 29.8 838 24.75 7.5 45.6 32 -8 17.6
03:40 1009 29.8 838 24.75 7.5 45.5 35 -7 19.4
03:45 1009 29.8 838 24.75 7.4 45.3 30 -9.1 15.7
03:50 1009 29.8 838 24.75 8 46.5 30 -8.3 17
03:55 1008 29.77 838 24.75 7.9 46.2 33 -7.4 18.7
04:00 1008 29.77 838 24.75 7.7 45.8 32 -8.1 17.3
04:05 1008 29.77 838 24.75 7.8 46.1 32 -7.7 18.2
04:10 1008 29.77 838 24.75 7.6 45.7 34 -7.4 18.6
04:15 1009 29.8 838 24.75 7.9 46.1 32 -7.7 18.2
04:20 1009 29.8 838 24.75 8.1 46.5 32 -7.5 18.5
04:25 1009 29.8 838 24.75 7.8 46.1 34 -7.2 19
04:30 1009 29.8 838 24.75 7.8 46 34 -7 19.3
04:35 1009 29.8 838 24.75 7.8 46.1 34 -7.1 19.3
04:40 1009 29.8 838 24.75 7.8 46 35 -6.7 19.9
04:45 1009 29.8 838 24.75 7.7 45.9 36 -6.4 20.4
04:50 1009 29.8 838 24.75 7.8 46 37 -6 21.3
04:55 1009 29.8 838 24.75 7.7 45.8 39 -5.5 22.1
05:00 1009 29.8 838 24.75 7.7 45.8 39 -5.4 22.3
05:05 1009 29.8 838 24.75 7.5 45.5 41 -5 23
05:10 1009 29.8 838 24.75 7.5 45.4 42 -4.7 23.5
05:15 1009 29.8 838 24.75 7.4 45.4 41 -4.8 23.3
05:20 1009 29.8 838 24.75 7.6 45.7 41 -4.7 23.5
05:25 1009 29.8 838 24.75 7.7 45.9 43 -4.1 24.6
05:30 1009 29.8 838 24.75 7.8 46.1 40 -4.8 23.3
05:35 1009 29.8 838 24.75 8.3 46.9 42 -4 24.7
05:40 1009 29.8 838 24.75 7.9 46.2 43 -4 24.9
05:45 1009 29.8 838 24.75 8.2 46.7 40 -4.7 23.6
05:50 1009 29.8 838 24.75 8.4 47.2 40 -4.5 23.9
05:55 1009 29.8 838 24.75 8.4 47.1 41 -4.2 24.4
06:00 1009 29.8 838 24.75 8.3 46.9 41 -4.1 24.6
06:05 1009 29.8 839 24.78 8.1 46.5 42 -4.1 24.6
06:10 1009 29.8 839 24.78 8.2 46.8 42 -4.1 24.7
06:15 1009 29.8 838 24.75 8.1 46.6 41 -4.5 23.9
06:20 1009 29.8 838 24.75 8.3 47 41 -4.2 24.4
06:25 1009 29.8 838 24.75 8.5 47.3 39 -4.6 23.7
06:30 1009 29.8 838 24.75 8.7 47.6 39 -4.4 24.1
06:35 1009 29.8 838 24.75 8.4 47.1 43 -3.4 25.8
06:40 1009 29.8 838 24.75 7.5 45.6 45 -3.5 25.7
06:45 1009 29.8 838 24.75 7 44.6 45 -4.2 24.5
06:50 1009 29.8 838 24.75 7 44.6 44 -4.4 24
06:55 1009 29.8 838 24.75 7 44.6 44 -4.3 24.2
07:00 1009 29.8 838 24.75 6.9 44.5 45 -4.2 24.4
07:05 1009 29.8 838 24.75 6.8 44.3 46 -4.1 24.6
07:10 1009 29.8 838 24.75 6.8 44.2 46 -4 24.8
07:15 1009 29.8 838 24.75 6.8 44.3 48 -3.5 25.6
07:20 1009 29.8 838 24.75 6.4 43.5 49 -3.6 25.5
07:25 1009 29.8 838 24.75 6.3 43.3 50 -3.5 25.7
07:30 1009 29.8 838 24.75 6.6 43.9 47 -3.9 25
07:35 1009 29.8 838 24.75 6.8 44.3 48 -3.5 25.6
07:40 1009 29.8 838 24.75 6.7 44 46 -4.1 24.6
07:45 1009 29.8 838 24.75 7.6 45.7 44 -3.8 25.2
07:50 1009 29.8 838 24.75 8 46.3 43 -3.9 24.9
07:55 1009 29.8 838 24.75 8.2 46.8 43 -3.5 25.6
08:00 1009 29.8 838 24.75 8 46.4 43 -3.9 24.9
08:05 1009 29.8 838 24.75 8.4 47.2 41 -4 24.8
08:10 1009 29.8 838 24.75 8.9 48 40 -3.9 25
08:15 1009 29.8 838 24.75 9.2 48.5 39 -4 24.7
08:20 1009 29.8 838 24.75 9.8 49.7 37 -4 24.8
08:25 1009 29.8 839 24.78 10.2 50.3 38 -3.7 25.4
08:30 1009 29.8 839 24.78 10 49.9 39 -3.3 26.1
08:35 1009 29.8 839 24.78 9.6 49.4 41 -3.1 26.5
08:40 1010 29.83 839 24.78 9.3 48.8 42 -2.9 26.7
08:45 1010 29.83 839 24.78 9.5 49.2 41 -3.1 26.4
08:50 1009 29.8 839 24.78 9.5 49.2 40 -3.4 25.9
08:55 1009 29.8 839 24.78 9.6 49.4 39 -3.6 25.5
09:00 1009 29.8 838 24.75 10 50 38 -3.7 25.4
09:05 1009 29.8 838 24.75 10.6 51 37 -3.5 25.6
09:10 1009 29.8 838 24.75 10.4 50.6 38 -3.4 26
09:15 1009 29.8 838 24.75 10.6 51 35 -4.2 24.5
09:20 1009 29.8 838 24.75 11.1 52 34 -4 24.7
09:25 1009 29.8 838 24.75 11.8 53.2 33 -3.9 25
09:30 1009 29.8 838 24.75 11.9 53.4 33 -4 24.8
09:35 1009 29.8 838 24.75 12.2 53.9 33 -3.7 25.3
09:40 1009 29.8 838 24.75 12.7 54.9 32 -3.5 25.7
09:45 1009 29.8 838 24.75 12.9 55.2 31 -3.7 25.4
09:50 1009 29.8 838 24.75 12.2 54 32 -4.1 24.6
09:55 1009 29.8 838 24.75 12.1 53.8 33 -3.8 25.2
10:00 1009 29.8 838 24.75 11.5 52.8 33 -4 24.8
10:05 1009 29.8 838 24.75 11.4 52.6 32 -4.6 23.8
10:10 1009 29.8 838 24.75 11.8 53.2 33 -3.9 25
10:15 1009 29.8 838 24.75 11.8 53.3 32 -4.1 24.6
10:20 1009 29.8 838 24.75 11.8 53.2 33 -3.9 25
10:25 1009 29.8 838 24.75 11.6 52.9 34 -3.8 25.1
10:30 1009 29.8 838 24.75 11.3 52.3 35 -3.7 25.4
10:35 1009 29.8 838 24.75 11.5 52.8 33 -4.3 24.2
10:40 1009 29.8 838 24.75 12.1 53.8 31 -4.3 24.3
10:45 1009 29.8 839 24.78 12.4 54.2 31 -4.2 24.4
10:50 1009 29.8 839 24.78 12.1 53.8 32 -4.1 24.7
10:55 1009 29.8 838 24.75 12.2 54 31 -4.2 24.4
11:00 1009 29.8 839 24.78 12.4 54.3 31 -4.1 24.5
11:05 1009 29.8 839 24.78 12.6 54.6 30 -4.4 24.1
11:10 1009 29.8 838 24.75 12.9 55.2 29 -4.7 23.6
11:15 1009 29.8 838 24.75 13.3 55.9 29 -4.4 24
11:20 1009 29.8 838 24.75 13.9 56.9 28 -4.2 24.4
11:25 1009 29.8 838 24.75 14.1 57.3 28 -3.9 25
11:30 1009 29.8 838 24.75 13.5 56.4 29 -4.1 24.6
11:35 1009 29.8 838 24.75 13.4 56.2 29 -4.3 24.3
11:40 1009 29.8 838 24.75 13.7 56.7 29 -3.9 25
11:45 1009 29.8 838 24.75 14.1 57.4 29 -3.6 25.5
11:50 1009 29.8 838 24.75 13.9 57.1 30 -3.3 26
11:55 1009 29.8 838 24.75 13.2 55.8 31 -3.5 25.7
12:00 1009 29.8 838 24.75 13.3 55.9 31 -3.4 25.8
12:05 1009 29.8 838 24.75 13.6 56.4 31 -3.3 26
12:10 1009 29.8 838 24.75 13.4 56 32 -3.1 26.5
12:15 1009 29.8 838 24.75 13.4 56.1 31 -3.2 26.2
12:20 1009 29.8 838 24.75 13.1 55.6 33 -2.8 27
12:25 1009 29.8 838 24.75 12.4 54.4 34 -3.1 26.4
12:30 1009 29.8 838 24.75 12.3 54.1 32 -3.8 25.2
12:35 1009 29.8 838 24.75 12 53.6 34 -3.3 26.1
12:40 1009 29.8 838 24.75 11.6 52.8 35 -3.4 26
12:45 1009 29.8 838 24.75 11.8 53.3 34 -3.6 25.6
12:50 1009 29.8 838 24.75 12.2 53.9 34 -3.3 26.1
12:55 1009 29.8 838 24.75 11.9 53.4 36 -2.6 27.4
13:00 1009 29.8 838 24.75 11.6 52.8 36 -2.8 26.9
13:05 1009 29.8 838 24.75 11.5 52.7 39 -1.9 28.5
13:10 1009 29.8 838 24.75 11.2 52.2 40 -2 28.4
13:15 1009 29.8 838 24.75 11.1 51.9 40 -2 28.5
13:20 1009 29.8 838 24.75 11.2 52.1 41 -1.6 29.1
13:25 1009 29.8 838 24.75 11 51.9 41 -1.8 28.7
13:30 1009 29.8 838 24.75 11.4 52.4 39 -2.2 28
13:35 1009 29.8 838 24.75 11.6 52.9 39 -1.9 28.7
13:40 1009 29.8 838 24.75 11.5 52.7 40 -1.6 29.1
13:45 1009 29.8 838 24.75 10.8 51.5 41 -2 28.4
13:50 1009 29.8 838 24.75 10.9 51.6 42 -1.5 29.3
13:55 1009 29.8 838 24.75 11.1 51.9 41 -1.7 28.9
14:00 1008 29.77 838 24.75 11 51.8 41 -1.6 29.1
14:05 1008 29.77 837 24.72 11 51.8 42 -1.3 29.6
14:10 1008 29.77 838 24.75 11.1 52.1 42 -1.4 29.5
14:15 1008 29.77 838 24.75 11 51.9 44 -0.8 30.5
14:20 1009 29.8 838 24.75 10.4 50.8 47 -0.5 31.2
14:25 1009 29.8 838 24.75 10.2 50.3 45 -1.2 29.9
14:30 1009 29.8 838 24.75 10.5 51 44 -1.3 29.6
14:35 1009 29.8 838 24.75 10.8 51.5 42 -1.4 29.4
14:40 1008 29.77 838 24.75 10.7 51.3 44 -1 30.1
14:45 1008 29.77 838 24.75 10.7 51.3 43 -1.3 29.7
14:50 1008 29.77 838 24.75 10.8 51.4 42 -1.7 28.9
14:55 1008 29.77 837 24.72 11.1 52 41 -1.5 29.3
15:00 1008 29.77 837 24.72 11 51.9 41 -1.6 29.2
15:05 1008 29.77 838 24.75 10.7 51.3 43 -1.4 29.5
15:10 1009 29.8 838 24.75 10.6 51.1 42 -1.7 29
15:15 1009 29.8 838 24.75 11 51.8 42 -1.3 29.7
15:20 1009 29.8 838 24.75 10.5 50.9 43 -1.6 29.2
15:25 1009 29.8 838 24.75 10.4 50.7 43 -1.7 29
15:30 1009 29.8 838 24.75 10.8 51.4 39 -2.4 27.6
15:35 1008 29.77 838 24.75 10.9 51.7 39 -2.5 27.4
15:40 1008 29.77 838 24.75 11 51.8 39 -2.5 27.5
15:45 1008 29.77 838 24.75 11 51.8 38 -2.8 27
15:50 1008 29.77 837 24.72 10.9 51.7 39 -2.4 27.7
15:55 1008 29.77 837 24.72 10.8 51.5 38 -2.9 26.9
16:00 1008 29.77 837 24.72 11.1 51.9 38 -2.8 26.9
16:05 1008 29.77 838 24.75 11.3 52.3 36 -3.4 26
16:10 1008 29.77 837 24.72 11.4 52.6 35 -3.4 25.9
16:15 1008 29.77 837 24.72 11.4 52.6 36 -3 26.7
16:20 1008 29.77 837 24.72 11.3 52.4 35 -3.4 25.9
16:25 1008 29.77 837 24.72 11.4 52.6 35 -3.3 26.1
16:30 1008 29.77 837 24.72 11.6 52.9 35 -3.2 26.2
16:35 1008 29.77 837 24.72 11.8 53.3 34 -3.6 25.5
16:40 1008 29.77 837 24.72 12 53.6 33 -3.9 25
16:45 1008 29.77 837 24.72 11.7 53.1 35 -3.1 26.4
16:50 1008 29.77 837 24.72 11.8 53.3 32 -4.2 24.5
16:55 1008 29.77 837 24.72 12 53.6 33 -3.6 25.6
17:00 1008 29.77 837 24.72 11.8 53.2 33 -4 24.8
17:05 1008 29.77 837 24.72 11.8 53.3 33 -3.8 25.1
17:10 1008 29.77 837 24.72 11.8 53.2 36 -2.6 27.3
17:15 1008 29.77 837 24.72 10.8 51.4 40 -2.2 28
17:20 1008 29.77 838 24.75 10.2 50.4 41 -2.4 27.7
17:25 1008 29.77 838 24.75 10 50 41 -2.5 27.4
17:30 1009 29.8 838 24.75 9.8 49.7 41 -2.7 27.2
17:35 1008 29.77 838 24.75 10 49.9 41 -2.7 27.2
17:40 1008 29.77 838 24.75 10 50 40 -3 26.6
17:45 1008 29.77 838 24.75 10.1 50.2 40 -2.8 26.9
17:50 1009 29.8 838 24.75 10.1 50.2 40 -2.7 27.2
17:55 1009 29.8 838 24.75 10 50.1 40 -2.8 27
18:00 1009 29.8 838 24.75 9.6 49.3 42 -2.5 27.4
18:05 1008 29.77 838 24.75 9.2 48.6 43 -2.5 27.4
18:10 1009 29.8 838 24.75 9.1 48.3 44 -2.5 27.5
18:15 1009 29.8 838 24.75 8.9 48 45 -2.3 27.8
18:20 1009 29.8 838 24.75 8.7 47.7 44 -2.8 27
18:25 1009 29.8 838 24.75 8.8 47.8 45 -2.5 27.6
18:30 1009 29.8 838 24.75 8.6 47.4 45 -2.8 27
18:35 1009 29.8 838 24.75 8.8 47.8 44 -2.8 27
18:40 1009 29.8 838 24.75 9.1 48.3 43 -2.9 26.7
18:45 1009 29.8 838 24.75 9.8 49.6 42 -2.6 27.4
18:50 1009 29.8 838 24.75 9.3 48.7 44 -2.5 27.6
18:55 1009 29.8 838 24.75 9 48.2 44 -2.6 27.3
19:00 1009 29.8 838 24.75 8.8 47.8 45 -2.5 27.5
19:05 1009 29.8 838 24.75 8.8 47.9 44 -2.8 26.9
19:10 1009 29.8 838 24.75 9 48.2 44 -2.6 27.3
19:15 1009 29.8 838 24.75 8.7 47.6 46 -2.3 27.9
19:20 1009 29.8 838 24.75 8.3 47 48 -2 28.3
19:25 1009 29.8 838 24.75 8.1 46.6 48 -2.1 28.2
19:30 1009 29.8 838 24.75 8.1 46.6 49 -2 28.5
19:35 1009 29.8 838 24.75 8.1 46.5 50 -1.6 29.2
19:40 1009 29.8 838 24.75 7.9 46.2 52 -1.3 29.6
19:45 1009 29.8 838 24.75 7.8 46.1 52 -1.4 29.5
19:50 1009 29.8 838 24.75 8.2 46.8 51 -1.3 29.7
19:55 1009 29.8 838 24.75 9 48.1 49 -1.2 29.9
20:00 1009 29.8 838 24.75 9.5 49.1 47 -1.2 29.9
20:05 1009 29.8 838 24.75 9.7 49.4 49 -0.6 30.9
20:10 1009 29.8 838 24.75 9.4 48.9 49 -0.9 30.5
20:15 1009 29.8 838 24.75 9.1 48.4 50 -0.7 30.7
20:20 1009 29.8 838 24.75 9.3 48.8 50 -0.5 31
20:25 1009 29.8 838 24.75 9.1 48.4 52 -0.1 31.8
20:30 1009 29.8 838 24.75 8.9 48 52 -0.5 31.1
20:35 1009 29.8 838 24.75 8.8 47.9 52 -0.5 31.1
20:40 1009 29.8 838 24.75 8.7 47.7 53 -0.4 31.2
20:45 1009 29.8 838 24.75 8.9 48.1 52 -0.3 31.4
20:50 1009 29.8 838 24.75 8.8 47.9 51 -0.7 30.7
20:55 1009 29.8 838 24.75 8.2 46.7 55 -0.3 31.4
21:00 1009 29.8 838 24.75 7.8 46.1 55 -0.6 31
21:05 1009 29.8 838 24.75 7.6 45.7 55 -0.7 30.7
21:10 1009 29.8 838 24.75 7.4 45.3 57 -0.6 30.8
21:15 1009 29.8 838 24.75 7.2 45 57 -0.8 30.5
21:20 1009 29.8 838 24.75 7.3 45.1 55 -1.1 30.1
21:25 1009 29.8 838 24.75 7.4 45.2 56 -0.9 30.4
21:30 1009 29.8 838 24.75 7.4 45.3 55 -1.1 29.9
21:35 1009 29.8 838 24.75 7.6 45.6 55 -1 30.3
21:40 1009 29.8 838 24.75 7.7 45.9 54 -1 30.2
21:45 1009 29.8 838 24.75 8.2 46.8 50 -1.4 29.5
21:50 1009 29.8 838 24.75 8.9 48 48 -1.6 29.2
21:55 1009 29.8 838 24.75 8.8 47.8 51 -0.9 30.5
22:00 1009 29.8 838 24.75 8.5 47.3 51 -1.1 30.1
22:05 1009 29.8 838 24.75 8.1 46.6 53 -0.9 30.5
22:10 1009 29.8 838 24.75 7.7 45.8 55 -0.9 30.5
22:15 1009 29.8 838 24.75 7.4 45.4 56 -0.8 30.6
22:20 1009 29.8 838 24.75 7.2 44.9 56 -1.1 30.1
22:25 1009 29.8 838 24.75 7.2 45 56 -1 30.3
22:30 1009 29.8 838 24.75 7.5 45.6 53 -1.5 29.4
22:35 1009 29.8 838 24.75 8.6 47.5 51 -1 30.2
22:40 1009 29.8 838 24.75 8.3 46.9 52 -1 30.2
22:45 1009 29.8 838 24.75 8.4 47.1 52 -0.8 30.5
22:50 1009 29.8 839 24.78 8 46.4 53 -0.9 30.4
22:55 1009 29.8 839 24.78 7.9 46.2 53 -1 30.2
23:00 1009 29.8 839 24.78 8 46.4 53 -1 30.1
23:05 1009 29.8 839 24.78 8.1 46.7 52 -1.1 30.1
23:10 1009 29.8 839 24.78 8.3 46.9 52 -0.9 30.3
23:15 1009 29.8 839 24.78 8.2 46.8 53 -0.8 30.6
23:20 1009 29.8 839 24.78 8.5 47.2 53 -0.6 31
23:25 1010 29.83 839 24.78 8.3 47 54 -0.4 31.3
23:30 1009 29.8 839 24.78 8.5 47.2 55 -0 31.9
23:35 1009 29.8 839 24.78 8.5 47.3 55 -0 31.9
23:40 1009 29.8 839 24.78 8.4 47.2 55 -0.1 31.9
23:45 1009 29.8 839 24.78 8.2 46.8 56 0.1 32.1
23:50 1009 29.8 839 24.78 8.1 46.6 57 0 32
23:55 1009 29.8 839 24.78 8 46.3 57 0.1 32.2
24:00 1009 29.8 839 24.78 7.9 46.2 58 0.2 32.3